createdAt,value
2017-11-07T00:02:04.835Z,102563.72
2017-11-07T00:04:34.118Z,102559.53
2017-11-07T00:07:02.515Z,102558.53
2017-11-07T00:09:30.893Z,102554.63
2017-11-07T00:11:59.528Z,102555.02
2017-11-07T00:14:27.882Z,102548.18
2017-11-07T00:16:56.222Z,102546.83
2017-11-07T00:19:24.640Z,102549.48
2017-11-07T00:21:52.981Z,102552.94
2017-11-07T00:24:21.571Z,102554.20
2017-11-07T00:26:49.949Z,102552.22
2017-11-07T00:29:18.312Z,102556.08
2017-11-07T00:31:47.417Z,102558.29
2017-11-07T00:34:15.835Z,102557.12
2017-11-07T00:36:44.176Z,102563.47
2017-11-07T00:39:13.811Z,102562.78
2017-11-07T00:41:43.160Z,102569.88
2017-11-07T00:44:12.288Z,102569.48
2017-11-07T00:46:40.634Z,102571.58
2017-11-07T00:49:09.786Z,102572.95
2017-11-07T00:51:38.883Z,102570.45
2017-11-07T00:54:07.228Z,102560.69
2017-11-07T00:56:36.498Z,102560.62
2017-11-07T00:59:04.859Z,102561.09
2017-11-07T01:01:34.081Z,102557.90
2017-11-07T01:04:02.454Z,102554.84
2017-11-07T01:06:30.802Z,102551.74
2017-11-07T01:09:00.076Z,102553.99
2017-11-07T01:11:28.650Z,102557.45
2017-11-07T01:13:56.994Z,102545.20
2017-11-07T01:16:25.990Z,102545.46
2017-11-07T01:18:55.151Z,102543.87
2017-11-07T01:21:24.445Z,102543.47
2017-11-07T01:23:52.802Z,102538.41
2017-11-07T01:26:21.312Z,102543.84
2017-11-07T01:28:49.684Z,102538.41
2017-11-07T01:31:18.962Z,102531.42
2017-11-07T01:33:49.726Z,102538.13
2017-11-07T01:36:19.659Z,102542.90
2017-11-07T01:38:48.030Z,102532.66
2017-11-07T01:41:16.577Z,102532.66
2017-11-07T01:43:44.935Z,102538.11
2017-11-07T01:46:14.047Z,102532.02
2017-11-07T01:48:42.414Z,102533.52
2017-11-07T01:51:10.997Z,102529.87
2017-11-07T01:53:39.343Z,102535.59
2017-11-07T01:56:07.899Z,102533.19
2017-11-07T01:58:37.173Z,102533.77
2017-11-07T02:01:06.300Z,102524.53
2017-11-07T02:03:34.738Z,102526.94
2017-11-07T02:06:04.478Z,102527.88
2017-11-07T02:08:32.846Z,102523.26
2017-11-07T02:11:01.203Z,102534.09
2017-11-07T02:13:31.166Z,102525.88
2017-11-07T02:15:59.529Z,102538.19
2017-11-07T02:18:28.489Z,102542.42
2017-11-07T02:20:57.605Z,102549.86
2017-11-07T02:23:26.968Z,102543.70
2017-11-07T02:25:55.702Z,102537.36
2017-11-07T02:28:24.069Z,102532.56
2017-11-07T02:30:53.195Z,102529.17
2017-11-07T02:33:22.460Z,102536.41
2017-11-07T02:35:51.630Z,102529.50
2017-11-07T02:38:20.485Z,102529.23
2017-11-07T02:40:50.276Z,102538.24
2017-11-07T02:43:19.148Z,102530.30
2017-11-07T02:45:47.518Z,102538.41
2017-11-07T02:48:17.135Z,102534.63
2017-11-07T02:50:45.632Z,102536.98
2017-11-07T02:53:13.992Z,102534.91
2017-11-07T02:55:43.133Z,102529.14
2017-11-07T02:58:11.491Z,102540.39
2017-11-07T03:00:40.599Z,102536.45
2017-11-07T03:03:09.781Z,102542.45
2017-11-07T03:05:38.112Z,102537.78
2017-11-07T03:08:06.456Z,102542.31
2017-11-07T03:10:35.151Z,102534.05
2017-11-07T03:13:04.179Z,102532.47
2017-11-07T03:15:32.509Z,102533.62
2017-11-07T03:18:01.367Z,102532.82
2017-11-07T03:20:30.326Z,102530.19
2017-11-07T03:22:58.946Z,102538.66
2017-11-07T03:25:27.461Z,102534.53
2017-11-07T03:27:56.588Z,102538.50
2017-11-07T03:30:25.734Z,102536.11
2017-11-07T03:32:55.032Z,102535.42
2017-11-07T03:35:24.144Z,102534.59
2017-11-07T03:37:52.490Z,102535.95
2017-11-07T03:40:20.877Z,102538.52
2017-11-07T03:42:49.218Z,102540.14
2017-11-07T03:45:17.557Z,102543.28
2017-11-07T03:47:45.942Z,102547.80
2017-11-07T03:50:14.306Z,102547.08
2017-11-07T03:52:43.242Z,102544.06
2017-11-07T03:55:12.603Z,102547.73
2017-11-07T03:57:41.837Z,102542.91
2017-11-07T04:00:10.922Z,102546.37
2017-11-07T04:02:39.283Z,102541.63
2017-11-07T04:05:08.382Z,102543.61
2017-11-07T04:07:39.189Z,102548.55
2017-11-07T04:10:07.585Z,102541.14
2017-11-07T04:12:37.502Z,102545.91
2017-11-07T04:15:06.622Z,102545.09
2017-11-07T04:17:35.153Z,102548.78
2017-11-07T04:20:05.895Z,102551.92
2017-11-07T04:22:35.134Z,102551.02
2017-11-07T04:25:04.207Z,102539.96
2017-11-07T04:27:33.308Z,102541.48
2017-11-07T04:30:02.441Z,102540.30
2017-11-07T04:32:30.832Z,102540.17
2017-11-07T04:34:59.495Z,102538.36
2017-11-07T04:37:27.987Z,102532.83
2017-11-07T04:39:56.744Z,102531.98
2017-11-07T04:42:25.855Z,102528.78
2017-11-07T04:44:54.408Z,102535.84
2017-11-07T04:47:23.537Z,102529.52
2017-11-07T04:49:51.878Z,102530.30
2017-11-07T04:52:20.731Z,102530.22
2017-11-07T04:54:49.726Z,102525.08
2017-11-07T04:57:19.453Z,102533.28
2017-11-07T04:59:47.786Z,102532.36
2017-11-07T05:02:16.745Z,102525.37
2017-11-07T05:04:45.101Z,102533.19
2017-11-07T05:07:13.522Z,102525.98
2017-11-07T05:09:42.986Z,102525.81
2017-11-07T05:12:11.318Z,102529.86
2017-11-07T05:14:39.663Z,102528.87
2017-11-07T05:17:08.033Z,102522.76
2017-11-07T05:19:36.404Z,102530.90
2017-11-07T05:22:04.734Z,102535.05
2017-11-07T05:24:34.060Z,102531.37
2017-11-07T05:27:02.399Z,102524.75
2017-11-07T05:29:32.075Z,102526.53
2017-11-07T05:32:00.459Z,102526.34
2017-11-07T05:34:28.800Z,102529.06
2017-11-07T05:36:57.749Z,102520.30
2017-11-07T05:39:26.889Z,102524.78
2017-11-07T05:41:55.686Z,102522.66
2017-11-07T05:44:24.884Z,102533.96
2017-11-07T05:46:53.533Z,102535.13
2017-11-07T05:49:22.640Z,102528.14
2017-11-07T05:51:50.976Z,102531.87
2017-11-07T05:54:19.440Z,102539.56
2017-11-07T05:56:48.650Z,102541.21
2017-11-07T05:59:18.598Z,102534.89
2017-11-07T06:01:48.644Z,102537.66
2017-11-07T06:04:17.805Z,102533.31
2017-11-07T06:06:46.912Z,102532.18
2017-11-07T06:09:15.517Z,102544.72
2017-11-07T06:11:43.888Z,102540.83
2017-11-07T06:14:14.155Z,102539.26
2017-11-07T06:16:43.493Z,102543.40
2017-11-07T06:19:12.624Z,102549.70
2017-11-07T06:21:40.983Z,102551.52
2017-11-07T06:24:10.206Z,102556.50
2017-11-07T06:26:38.547Z,102553.84
2017-11-07T06:29:06.893Z,102556.68
2017-11-07T06:31:35.423Z,102560.50
2017-11-07T06:34:04.533Z,102554.95
2017-11-07T06:36:32.874Z,102557.64
2017-11-07T06:39:01.255Z,102559.42
2017-11-07T06:41:29.978Z,102558.45
2017-11-07T06:43:58.589Z,102561.13
2017-11-07T06:46:26.947Z,102557.46
2017-11-07T06:48:55.282Z,102557.42
2017-11-07T06:51:24.410Z,102554.95
2017-11-07T06:53:52.942Z,102547.57
2017-11-07T06:56:21.353Z,102554.91
2017-11-07T06:58:51.218Z,102546.16
2017-11-07T07:01:19.597Z,102550.27
2017-11-07T07:03:49.003Z,102550.18
2017-11-07T07:06:17.350Z,102547.98
2017-11-07T07:08:47.394Z,102550.66
2017-11-07T07:11:15.720Z,102552.56
2017-11-07T07:13:45.080Z,102547.31
2017-11-07T07:16:13.525Z,102552.43
2017-11-07T07:18:41.866Z,102554.94
2017-11-07T07:21:10.229Z,102555.21
2017-11-07T07:23:40.087Z,102545.17
2017-11-07T07:26:08.471Z,102550.27
2017-11-07T07:28:36.844Z,102546.25
2017-11-07T07:31:05.998Z,102546.97
2017-11-07T07:33:34.355Z,102548.31
2017-11-07T07:36:02.990Z,102540.83
2017-11-07T07:38:32.304Z,102539.95
2017-11-07T07:41:00.658Z,102543.13
2017-11-07T07:43:29.010Z,102539.42
2017-11-07T07:45:57.401Z,102543.48
2017-11-07T07:48:25.756Z,102541.30
2017-11-07T07:50:55.630Z,102541.70
2017-11-07T07:53:25.457Z,102542.36
2017-11-07T07:55:55.221Z,102542.94
2017-11-07T07:58:25.022Z,102539.13
2017-11-07T08:00:54.131Z,102543.09
2017-11-07T08:03:23.933Z,102539.80
2017-11-07T08:05:52.293Z,102541.58
2017-11-07T08:08:21.585Z,102537.28
2017-11-07T08:10:50.229Z,102534.81
2017-11-07T08:13:18.767Z,102539.67
2017-11-07T08:15:47.443Z,102538.63
2017-11-07T08:18:15.823Z,102537.02
2017-11-07T08:20:44.197Z,102533.08
2017-11-07T08:23:13.698Z,102529.28
2017-11-07T08:25:42.062Z,102534.70
2017-11-07T08:28:11.243Z,102529.09
2017-11-07T08:30:41.165Z,102532.07
2017-11-07T08:33:11.107Z,102528.80
2017-11-07T08:35:40.250Z,102525.53
2017-11-07T08:38:08.636Z,102519.33
2017-11-07T08:40:36.999Z,102528.75
2017-11-07T08:43:06.020Z,102527.09
2017-11-07T08:45:36.214Z,102526.33
2017-11-07T08:48:04.652Z,102527.84
2017-11-07T08:50:33.034Z,102522.81
2017-11-07T08:53:01.404Z,102516.50
2017-11-07T08:55:30.799Z,102526.63
2017-11-07T08:57:59.997Z,102526.66
2017-11-07T09:00:29.397Z,102529.05
2017-11-07T09:02:57.803Z,102526.11
2017-11-07T09:05:26.176Z,102520.68
2017-11-07T09:07:54.852Z,102527.51
2017-11-07T09:10:23.337Z,102527.22
2017-11-07T09:12:52.652Z,102529.19
2017-11-07T09:15:21.058Z,102531.61
2017-11-07T09:17:49.791Z,102530.84
2017-11-07T09:20:19.187Z,102529.57
2017-11-07T09:22:48.522Z,102533.52
2017-11-07T09:25:16.876Z,102542.21
2017-11-07T09:27:45.244Z,102526.41
2017-11-07T09:30:13.831Z,102521.78
2017-11-07T09:32:42.293Z,102525.05
2017-11-07T09:35:10.672Z,102525.36
2017-11-07T09:37:39.064Z,102525.81
2017-11-07T09:40:07.414Z,102520.20
2017-11-07T09:42:35.822Z,102523.95
2017-11-07T09:45:04.274Z,102523.75
2017-11-07T09:47:32.636Z,102524.08
2017-11-07T09:50:00.996Z,102510.34
2017-11-07T09:52:30.367Z,102511.82
2017-11-07T09:54:59.551Z,102513.83
2017-11-07T09:57:28.370Z,102516.09
2017-11-07T09:59:57.669Z,102507.25
2017-11-07T10:02:26.077Z,102505.60
2017-11-07T10:04:54.422Z,102506.48
2017-11-07T10:07:23.552Z,102497.78
2017-11-07T10:09:52.114Z,102502.24
2017-11-07T10:12:21.263Z,102503.34
2017-11-07T10:14:50.285Z,102497.16
2017-11-07T10:17:18.633Z,102491.77
2017-11-07T10:19:48.283Z,102490.19
2017-11-07T10:22:18.406Z,102492.30
2017-11-07T10:24:47.504Z,102483.09
2017-11-07T10:27:16.680Z,102480.61
2017-11-07T10:29:45.238Z,102478.80
2017-11-07T10:32:13.672Z,102481.82
2017-11-07T10:34:42.078Z,102474.73
2017-11-07T10:37:10.722Z,102475.16
2017-11-07T10:39:40.868Z,102467.33
2017-11-07T10:42:09.487Z,102467.29
2017-11-07T10:44:38.563Z,102469.95
2017-11-07T10:47:06.961Z,102462.98
2017-11-07T10:49:36.122Z,102466.52
2017-11-07T10:52:04.513Z,102471.65
2017-11-07T10:54:32.961Z,102471.43
2017-11-07T10:57:01.825Z,102464.67
2017-11-07T10:59:30.353Z,102463.80
2017-11-07T11:01:58.828Z,102463.25
2017-11-07T11:04:28.632Z,102454.53
2017-11-07T11:06:57.765Z,102450.97
2017-11-07T11:09:27.730Z,102448.58
2017-11-07T11:11:56.093Z,102454.96
2017-11-07T11:14:24.570Z,102446.38
2017-11-07T11:16:53.321Z,102434.80
2017-11-07T11:19:22.221Z,102429.27
2017-11-07T11:21:51.223Z,102428.17
2017-11-07T11:24:20.371Z,102425.80
2017-11-07T11:26:49.467Z,102427.20
2017-11-07T11:29:17.843Z,102424.66
2017-11-07T11:31:46.325Z,102419.07
2017-11-07T11:34:15.705Z,102418.31
2017-11-07T11:36:44.279Z,102414.47
2017-11-07T11:39:12.670Z,102416.57
2017-11-07T11:41:41.316Z,102417.69
2017-11-07T11:44:10.056Z,102412.95
2017-11-07T11:46:38.672Z,102417.09
2017-11-07T11:49:07.799Z,102410.73
2017-11-07T11:51:36.308Z,102403.33
2017-11-07T11:54:05.400Z,102402.05
2017-11-07T11:56:35.449Z,102401.15
2017-11-07T11:59:04.588Z,102406.06
2017-11-07T12:01:33.008Z,102393.55
2017-11-07T12:04:01.361Z,102397.44
2017-11-07T12:06:30.057Z,102388.09
2017-11-07T12:08:58.475Z,102385.10
2017-11-07T12:11:27.686Z,102382.73
2017-11-07T12:13:56.769Z,102377.25
2017-11-07T12:16:25.868Z,102381.63
2017-11-07T12:18:54.246Z,102376.56
2017-11-07T12:21:22.626Z,102377.39
2017-11-07T12:23:51.798Z,102368.69
2017-11-07T12:26:20.182Z,102358.61
2017-11-07T12:28:48.858Z,102352.19
2017-11-07T12:31:17.780Z,102350.81
2017-11-07T12:33:46.238Z,102347.16
2017-11-07T12:36:14.712Z,102346.64
2017-11-07T12:38:43.136Z,102342.75
2017-11-07T12:41:12.608Z,102341.97
2017-11-07T12:43:40.978Z,102339.08
2017-11-07T12:46:09.805Z,102344.95
2017-11-07T12:48:38.178Z,102336.70
2017-11-07T12:51:24.578Z,102339.23
2017-11-07T12:53:54.617Z,102342.42
2017-11-07T12:56:23.045Z,102335.20
2017-11-07T12:58:51.465Z,102339.89
2017-11-07T13:01:20.627Z,102339.34
2017-11-07T13:03:49.242Z,102337.45
2017-11-07T13:06:18.032Z,102338.59
2017-11-07T13:08:46.425Z,102335.16
2017-11-07T13:11:15.553Z,102325.78
2017-11-07T13:13:45.263Z,102329.39
2017-11-07T13:16:14.614Z,102325.96
2017-11-07T13:18:42.973Z,102318.88
2017-11-07T13:21:12.295Z,102308.85
2017-11-07T13:23:40.686Z,102306.62
2017-11-07T13:26:10.091Z,102311.69
2017-11-07T13:28:38.470Z,102315.60
2017-11-07T13:31:07.629Z,102315.80
2017-11-07T13:33:37.496Z,102312.08
2017-11-07T13:36:06.071Z,102306.34
2017-11-07T13:38:35.178Z,102299.69
2017-11-07T13:41:04.299Z,102300.48
2017-11-07T13:43:32.682Z,102291.00
2017-11-07T13:46:01.007Z,102292.45
2017-11-07T13:48:30.106Z,102284.20
2017-11-07T13:50:59.300Z,102287.69
2017-11-07T13:53:27.653Z,102277.97
2017-11-07T13:55:56.819Z,102283.84
2017-11-07T13:58:25.241Z,102281.86
2017-11-07T14:00:53.566Z,102278.79
2017-11-07T14:03:22.118Z,102276.83
2017-11-07T14:05:50.496Z,102267.89
2017-11-07T14:08:20.313Z,102264.95
2017-11-07T14:10:48.993Z,102253.08
2017-11-07T14:13:17.575Z,102253.55
2017-11-07T14:15:46.481Z,102244.84
2017-11-07T14:18:14.848Z,102250.70
2017-11-07T14:20:44.153Z,102250.31
2017-11-07T14:23:13.036Z,102250.25
2017-11-07T14:25:42.205Z,102252.13
2017-11-07T14:28:10.582Z,102252.81
2017-11-07T14:30:38.949Z,102249.23
2017-11-07T14:33:07.550Z,102247.53
2017-11-07T14:35:35.931Z,102248.36
2017-11-07T14:38:04.816Z,102239.35
2017-11-07T14:40:33.169Z,102238.89
2017-11-07T14:43:01.619Z,102237.86
2017-11-07T14:45:30.750Z,102236.67
2017-11-07T14:47:59.122Z,102227.39
2017-11-07T14:50:27.737Z,102226.33
2017-11-07T14:52:56.087Z,102229.44
2017-11-07T14:55:24.432Z,102226.42
2017-11-07T14:57:53.467Z,102225.84
2017-11-07T15:00:22.028Z,102221.54
2017-11-07T15:02:51.134Z,102217.80
2017-11-07T15:05:20.710Z,102215.91
2017-11-07T15:07:49.057Z,102214.61
2017-11-07T15:10:17.389Z,102209.31
2017-11-07T15:12:46.869Z,102208.89
2017-11-07T15:15:16.455Z,102214.88
2017-11-07T15:17:44.808Z,102211.64
2017-11-07T15:20:13.191Z,102203.39
2017-11-07T15:22:41.560Z,102205.12
2017-11-07T15:25:09.918Z,102212.72
2017-11-07T15:27:38.557Z,102200.84
2017-11-07T15:30:06.881Z,102199.63
2017-11-07T15:32:35.243Z,102200.85
2017-11-07T15:35:05.036Z,102197.55
2017-11-07T15:37:35.535Z,102195.73
2017-11-07T15:40:03.914Z,102193.69
2017-11-07T15:42:32.294Z,102193.92
2017-11-07T15:45:02.042Z,102192.61
2017-11-07T15:47:30.414Z,102195.91
2017-11-07T15:49:59.971Z,102191.80
2017-11-07T15:52:29.588Z,102184.02
2017-11-07T15:54:58.092Z,102199.63
2017-11-07T15:57:26.886Z,102190.11
2017-11-07T15:59:56.002Z,102192.30
2017-11-07T16:02:24.318Z,102196.80
2017-11-07T16:04:53.516Z,102198.67
2017-11-07T16:07:21.880Z,102195.25
2017-11-07T16:09:51.037Z,102183.77
2017-11-07T16:12:19.586Z,102186.89
2017-11-07T16:14:47.961Z,102183.56
2017-11-07T16:17:16.346Z,102177.56
2017-11-07T16:19:45.076Z,102185.97
2017-11-07T16:22:14.667Z,102181.26
2017-11-07T16:24:43.002Z,102179.11
2017-11-07T16:27:11.423Z,102167.39
2017-11-07T16:29:39.792Z,102173.56
2017-11-07T16:32:09.899Z,102176.96
2017-11-07T16:34:38.516Z,102186.08
2017-11-07T16:37:06.865Z,102181.30
2017-11-07T16:39:35.238Z,102178.16
2017-11-07T16:42:04.015Z,102165.87
2017-11-07T16:44:32.363Z,102173.19
2017-11-07T16:47:01.502Z,102166.46
2017-11-07T16:49:30.550Z,102158.18
2017-11-07T16:51:59.119Z,102161.59
2017-11-07T16:54:27.477Z,102153.47
2017-11-07T16:56:56.263Z,102154.91
2017-11-07T16:59:25.450Z,102160.20
2017-11-07T17:01:53.806Z,102154.16
2017-11-07T17:04:22.945Z,102151.69
2017-11-07T17:06:51.913Z,102150.25
2017-11-07T17:09:21.234Z,102146.14
2017-11-07T17:11:50.349Z,102151.13
2017-11-07T17:14:18.695Z,102151.77
2017-11-07T17:16:48.557Z,102150.55
2017-11-07T17:19:17.007Z,102157.36
2017-11-07T17:21:45.606Z,102155.50
2017-11-07T17:24:13.988Z,102157.45
2017-11-07T17:26:42.395Z,102151.73
2017-11-07T17:29:10.996Z,102149.77
2017-11-07T17:31:40.998Z,102143.50
2017-11-07T17:34:09.382Z,102148.92
2017-11-07T17:36:38.530Z,102148.63
2017-11-07T17:39:06.887Z,102148.02
2017-11-07T17:41:35.407Z,102136.68
2017-11-07T17:44:05.013Z,102135.93
2017-11-07T17:46:34.181Z,102134.46
2017-11-07T17:49:03.434Z,102139.73
2017-11-07T17:51:32.119Z,102133.98
2017-11-07T17:54:01.367Z,102134.73
2017-11-07T17:56:29.778Z,102133.64
2017-11-07T17:58:59.054Z,102125.15
2017-11-07T18:01:28.749Z,102128.36
2017-11-07T18:03:58.142Z,102133.70
2017-11-07T18:06:28.405Z,102126.38
2017-11-07T18:08:58.541Z,102125.03
2017-11-07T18:11:26.666Z,102127.58
2017-11-07T18:13:55.046Z,102120.95
2017-11-07T18:16:24.234Z,102115.80
2017-11-07T18:18:53.381Z,102117.78
2017-11-07T18:21:22.497Z,102118.74
2017-11-07T18:23:51.086Z,102110.80
2017-11-07T18:26:19.909Z,102101.55
2017-11-07T18:28:49.063Z,102105.81
2017-11-07T18:31:17.469Z,102099.55
2017-11-07T18:33:46.385Z,102104.91
2017-11-07T18:36:15.678Z,102104.34
2017-11-07T18:38:44.028Z,102111.86
2017-11-07T18:41:15.612Z,102097.89
2017-11-07T18:43:44.251Z,102104.72
2017-11-07T18:46:12.852Z,102100.55
2017-11-07T18:48:41.320Z,102096.02
2017-11-07T18:51:09.897Z,102094.41
2017-11-07T18:53:38.242Z,102096.66
2017-11-07T18:56:07.066Z,102098.02
2017-11-07T18:58:35.802Z,102100.41
2017-11-07T19:01:04.936Z,102092.80
2017-11-07T19:03:33.315Z,102092.11
2017-11-07T19:06:03.598Z,102086.40
2017-11-07T19:08:32.014Z,102084.06
2017-11-07T19:11:00.517Z,102081.58
2017-11-07T19:13:28.881Z,102079.72
2017-11-07T19:15:57.248Z,102075.20
2017-11-07T19:18:26.396Z,102072.61
2017-11-07T19:20:54.762Z,102073.94
2017-11-07T19:23:23.113Z,102067.68
2017-11-07T19:25:51.524Z,102070.70
2017-11-07T19:28:20.294Z,102072.02
2017-11-07T19:30:49.919Z,102073.50
2017-11-07T19:33:18.573Z,102064.79
2017-11-07T19:35:46.920Z,102065.66
2017-11-07T19:38:15.277Z,102061.11
2017-11-07T19:40:44.434Z,102052.55
2017-11-07T19:43:13.626Z,102050.33
2017-11-07T19:45:41.989Z,102051.55
2017-11-07T19:48:10.840Z,102046.08
2017-11-07T19:50:40.256Z,102049.42
2017-11-07T19:53:10.010Z,102050.45
2017-11-07T19:55:39.711Z,102042.41
2017-11-07T19:58:09.005Z,102045.26
2017-11-07T20:00:38.297Z,102042.36
2017-11-07T20:03:06.682Z,102038.34
2017-11-07T20:05:35.057Z,102038.91
2017-11-07T20:08:03.454Z,102036.94
2017-11-07T20:10:32.911Z,102035.10
2017-11-07T20:13:01.614Z,102024.42
2017-11-07T20:15:29.957Z,102015.63
2017-11-07T20:17:58.421Z,102023.42
2017-11-07T20:20:27.157Z,102017.66
2017-11-07T20:22:56.331Z,102023.88
2017-11-07T20:25:24.785Z,102017.62
2017-11-07T20:27:53.878Z,102028.72
2017-11-07T20:30:23.041Z,102018.90
2017-11-07T20:32:52.143Z,102021.91
2017-11-07T20:35:21.454Z,102031.31
2017-11-07T20:37:49.823Z,102020.82
2017-11-07T20:40:18.255Z,102019.23
2017-11-07T20:42:47.654Z,102022.84
2017-11-07T20:45:16.037Z,102025.42
2017-11-07T20:47:44.450Z,102024.70
2017-11-07T20:50:12.800Z,102024.07
2017-11-07T20:52:41.835Z,102018.34
2017-11-07T20:55:10.749Z,102013.23
2017-11-07T20:57:40.808Z,101999.52
2017-11-07T21:00:09.192Z,102001.49
2017-11-07T21:02:37.828Z,102001.74
2017-11-07T21:05:06.856Z,102008.06
2017-11-07T21:07:36.160Z,102005.79
2017-11-07T21:10:04.826Z,102005.12
2017-11-07T21:12:33.252Z,102003.41
2017-11-07T21:15:01.642Z,101992.96
2017-11-07T21:17:30.531Z,101993.82
2017-11-07T21:19:58.887Z,101984.85
2017-11-07T21:22:28.452Z,101994.00
2017-11-07T21:24:57.020Z,101997.20
2017-11-07T21:27:25.379Z,101986.07
2017-11-07T21:29:55.851Z,101984.12
2017-11-07T21:32:24.224Z,101980.50
2017-11-07T21:34:53.084Z,101972.39
2017-11-07T21:37:22.265Z,101971.72
2017-11-07T21:39:50.643Z,101967.60
2017-11-07T21:42:19.101Z,101964.29
2017-11-07T21:44:47.459Z,101961.22
2017-11-07T21:47:16.425Z,101957.41
2017-11-07T21:49:44.787Z,101954.52
2017-11-07T21:52:13.943Z,101954.52
2017-11-07T21:54:43.157Z,101957.03
2017-11-07T21:57:11.982Z,101951.69
2017-11-07T21:59:40.341Z,101948.07
2017-11-07T22:02:08.743Z,101945.19
2017-11-07T22:04:37.092Z,101946.70
2017-11-07T22:07:05.630Z,101943.80
2017-11-07T22:09:34.169Z,101949.66
2017-11-07T22:12:03.576Z,101948.80
2017-11-07T22:14:35.147Z,101951.16
2017-11-07T22:17:13.219Z,101943.89
2017-11-07T22:19:41.846Z,101948.92
2017-11-07T22:22:10.782Z,101943.07
2017-11-07T22:24:40.919Z,101943.93
2017-11-07T22:27:10.762Z,101939.44
2017-11-07T22:29:40.676Z,101934.32
2017-11-07T22:32:09.581Z,101935.47
2017-11-07T22:34:37.943Z,101921.95
2017-11-07T22:37:07.059Z,101922.13
2017-11-07T22:39:38.865Z,101929.47
2017-11-07T22:42:07.255Z,101924.92
2017-11-07T22:44:35.585Z,101922.84
2017-11-07T22:47:04.112Z,101915.11
2017-11-07T22:49:32.444Z,101920.78
2017-11-07T22:52:00.854Z,101918.47
2017-11-07T22:54:29.268Z,101912.89
2017-11-07T22:56:58.365Z,101920.92
2017-11-07T22:59:27.237Z,101916.88
2017-11-07T23:01:55.635Z,101920.48
2017-11-07T23:04:25.448Z,101914.23
2017-11-07T23:06:54.859Z,101909.80
2017-11-07T23:09:23.330Z,101916.91
2017-11-07T23:11:54.083Z,101911.02
2017-11-07T23:14:22.440Z,101907.34
2017-11-07T23:16:50.854Z,101903.90
2017-11-07T23:19:19.852Z,101907.22
2017-11-07T23:21:48.581Z,101904.14
2017-11-07T23:24:17.061Z,101907.87
2017-11-07T23:26:45.473Z,101904.66
2017-11-07T23:29:14.853Z,101898.94
2017-11-07T23:31:44.450Z,101907.33
2017-11-07T23:34:12.805Z,101897.03
2017-11-07T23:36:41.955Z,101896.84
2017-11-07T23:39:11.006Z,101906.30
2017-11-07T23:41:40.163Z,101903.38
2017-11-07T23:44:08.526Z,101900.17
2017-11-07T23:46:36.982Z,101897.94
2017-11-07T23:49:05.312Z,101892.44
2017-11-07T23:51:34.613Z,101894.90
2017-11-07T23:54:03.761Z,101898.23
2017-11-07T23:56:32.264Z,101895.68
2017-11-07T23:59:00.644Z,101891.21
